Time;durP1;ratioP1;P1;durP2;ratioP2;P2;SDS_P1;SDS_P2;PMS_P1;PMS_P2;Temp;Humidity;BMP_temperature;BMP_pressure;BME280_temperature;BME280_humidity;BME280_pressure;Samples;Min_cycle;Max_cycle;Signal;HPM_P1;HPM_P2
2023/09/07 00:01:06;;;;;;;14.20;9.30;;;;;;;16.04;71.20;99901.27;232597;213;147330;-58
2023/09/07 00:06:15;;;;;;;15.00;9.90;;;;;;;16.02;70.91;99904.45;232550;213;141644;-58
2023/09/07 00:11:19;;;;;;;17.80;9.50;;;;;;;15.96;70.90;99906.46;235135;213;136480;-60
2023/09/07 00:16:23;;;;;;;17.20;10.00;;;;;;;15.89;71.04;99910.07;234862;214;145618;-59
2023/09/07 00:21:27;;;;;;;16.70;9.30;;;;;;;15.83;71.22;99903.61;234722;215;138641;-59
2023/09/07 00:26:32;;;;;;;18.20;9.90;;;;;;;15.77;71.10;99901.91;234813;215;138714;-61
2023/09/07 00:31:35;;;;;;;16.20;9.80;;;;;;;15.70;71.41;99903.13;234703;214;145651;-60
2023/09/07 00:36:39;;;;;;;16.90;8.80;;;;;;;15.66;71.50;99907.36;234845;214;138827;-59
2023/09/07 00:41:42;;;;;;;18.20;8.70;;;;;;;15.63;71.76;99913.40;234742;214;140542;-60
2023/09/07 00:46:45;;;;;;;18.30;8.30;;;;;;;15.65;71.80;99909.55;235022;214;145491;-60
2023/09/07 00:57:13;;;;;;;21.30;12.00;;;;;;;15.70;71.65;99914.21;231376;225;724315;-60
2023/09/07 01:02:18;;;;;;;25.50;15.20;;;;;;;15.65;71.67;99912.78;232234;220;136602;-59
2023/09/07 01:07:31;;;;;;;28.00;19.10;;;;;;;15.61;71.62;99917.16;232840;215;145449;-60
2023/09/07 01:12:36;;;;;;;26.20;17.90;;;;;;;15.53;71.93;99916.44;232647;213;139288;-59
2023/09/07 01:17:42;;;;;;;23.50;15.00;;;;;;;15.45;71.88;99913.79;232598;213;137027;-59
2023/09/07 01:22:48;;;;;;;17.10;11.00;;;;;;;15.37;72.24;99904.84;232691;214;144043;-60
2023/09/07 01:27:54;;;;;;;16.30;9.50;;;;;;;15.33;72.35;99907.08;232683;214;139038;-60
2023/09/07 01:32:59;;;;;;;17.70;10.80;;;;;;;15.31;72.36;99902.90;232618;214;137347;-59
2023/09/07 01:38:04;;;;;;;13.70;9.50;;;;;;;15.30;72.37;99902.42;232632;214;143971;-58
2023/09/07 01:43:07;;;;;;;17.60;10.10;;;;;;;15.28;72.54;99899.52;232634;214;138783;-61
2023/09/07 01:48:14;;;;;;;16.00;9.00;;;;;;;15.25;72.59;99900.79;232610;214;137461;-60
2023/09/07 01:53:18;;;;;;;17.20;9.90;;;;;;;15.23;72.74;99904.54;232777;214;145808;-58
2023/09/07 01:58:26;;;;;;;15.30;9.00;;;;;;;15.18;72.93;99908.44;232551;214;140520;-59
2023/09/07 02:03:33;;;;;;;12.40;8.30;;;;;;;15.12;73.00;99907.04;232733;214;137524;-59
2023/09/07 02:08:38;;;;;;;14.40;8.20;;;;;;;15.09;73.11;99907.26;232622;214;145834;-59
2023/09/07 02:13:43;;;;;;;15.80;8.60;;;;;;;15.07;73.14;99908.13;232690;214;140387;-58
2023/09/07 02:18:50;;;;;;;17.90;8.30;;;;;;;15.06;73.05;99905.64;232779;214;136511;-64
2023/09/07 02:23:55;;;;;;;13.30;7.80;;;;;;;15.03;73.10;99903.02;232567;214;147744;-59
2023/09/07 02:29:05;;;;;;;12.90;8.40;;;;;;;14.99;73.14;99906.16;232907;214;139312;-61
2023/09/07 02:34:10;;;;;;;14.90;8.20;;;;;;;14.93;73.12;99900.79;232698;214;136751;-60
2023/09/07 02:39:20;;;;;;;15.70;8.10;;;;;;;14.88;73.17;99899.16;232693;214;145584;-59
2023/09/07 02:44:26;;;;;;;13.30;7.60;;;;;;;14.84;73.42;99899.25;232673;214;139770;-60
2023/09/07 02:49:31;;;;;;;46.20;41.30;;;;;;;14.81;73.58;99901.95;232709;214;137812;-58
2023/09/07 02:54:38;;;;;;;449.90;364.20;;;;;;;14.87;73.98;99904.21;232858;215;145556;-60
2023/09/07 02:59:43;;;;;;;;;;;;;;;14.87;73.95;99909.39;232726;214;138805;-58
2023/09/07 03:04:54;;;;;;;132.20;85.10;;;;;;;14.82;74.01;99909.91;232943;214;131096;-59
2023/09/07 03:10:05;;;;;;;31.60;22.30;;;;;;;14.80;74.13;99906.14;232672;214;147355;-58
2023/09/07 03:15:12;;;;;;;18.50;10.10;;;;;;;14.74;74.19;99902.45;232650;214;138847;-58
2023/09/07 03:20:16;;;;;;;21.70;9.20;;;;;;;14.70;74.05;99901.29;232711;214;138910;-59
2023/09/07 03:25:27;;;;;;;16.60;8.00;;;;;;;14.66;73.99;99901.52;232828;214;145965;-58
2023/09/07 03:30:33;;;;;;;15.00;7.60;;;;;;;14.62;74.06;99909.09;232710;214;138690;-58
2023/09/07 03:35:40;;;;;;;16.20;8.90;;;;;;;14.63;74.18;99908.50;232892;214;137061;-60
2023/09/07 03:40:44;;;;;;;16.30;9.20;;;;;;;14.65;74.14;99906.61;232633;214;146562;-61
2023/09/07 03:45:50;;;;;;;160.20;123.70;;;;;;;14.63;74.26;99908.31;232642;214;138638;-61
2023/09/07 03:50:54;;;;;;;27.20;18.20;;;;;;;14.61;74.49;99908.09;232704;214;137820;-61
2023/09/07 03:56:03;;;;;;;18.20;9.50;;;;;;;14.57;74.10;99913.02;232796;214;146905;-64
2023/09/07 04:01:08;;;;;;;18.30;8.40;;;;;;;14.47;74.16;99915.21;232744;214;138780;-59
2023/09/07 04:06:12;;;;;;;17.30;8.70;;;;;;;14.39;74.26;99912.86;232776;214;137782;-59
2023/09/07 04:11:17;;;;;;;18.90;8.50;;;;;;;14.32;74.33;99915.97;232783;214;146999;-59
2023/09/07 04:16:23;;;;;;;17.80;8.70;;;;;;;14.35;74.68;99923.27;232651;214;139050;-59
2023/09/07 04:21:28;;;;;;;17.40;9.10;;;;;;;14.39;74.57;99926.98;232843;214;138331;-58
2023/09/07 04:26:37;;;;;;;17.80;8.80;;;;;;;14.41;74.57;99932.39;232719;215;146447;-61
2023/09/07 04:31:42;;;;;;;19.10;8.70;;;;;;;14.40;74.57;99933.84;232827;214;138585;-60
2023/09/07 04:36:47;;;;;;;15.90;8.40;;;;;;;14.39;74.95;99938.73;232772;214;140943;-60
2023/09/07 04:41:52;;;;;;;13.20;9.40;;;;;;;14.40;75.49;99939.05;232866;207;145775;-58
2023/09/07 04:46:58;;;;;;;15.70;9.10;;;;;;;14.42;75.89;99940.84;232752;214;138945;-58
2023/09/07 04:52:05;;;;;;;14.70;8.60;;;;;;;14.46;76.10;99945.61;232661;214;138894;-60
2023/09/07 04:57:11;;;;;;;12.10;9.20;;;;;;;14.56;76.04;99945.91;232738;214;146974;-59
2023/09/07 05:02:18;;;;;;;12.30;8.90;;;;;;;14.66;75.96;99951.70;232826;215;140752;-60
2023/09/07 05:07:23;;;;;;;14.60;9.10;;;;;;;14.73;75.91;99949.45;232658;215;138343;-59
2023/09/07 05:12:29;;;;;;;13.40;9.20;;;;;;;14.79;75.84;99954.27;232555;214;148298;-60
2023/09/07 05:17:33;;;;;;;16.80;9.50;;;;;;;14.84;75.73;99958.78;232827;214;138837;-62
2023/09/07 05:22:40;;;;;;;16.10;9.00;;;;;;;14.87;75.86;99959.44;232621;214;137716;-61
2023/09/07 05:27:46;;;;;;;14.50;8.60;;;;;;;14.93;76.04;99959.21;232622;214;145730;-62
2023/09/07 05:32:51;;;;;;;16.50;9.40;;;;;;;15.02;76.07;99960.64;232694;214;139320;-62
2023/09/07 05:37:55;;;;;;;21.60;10.10;;;;;;;15.14;75.92;99965.73;232714;214;137536;-61
2023/09/07 05:42:59;;;;;;;21.60;12.00;;;;;;;15.24;75.95;99970.95;232683;214;145430;-61
2023/09/07 05:48:05;;;;;;;19.70;11.60;;;;;;;15.31;76.01;99967.79;232682;214;138860;-62
2023/09/07 05:53:12;;;;;;;23.50;13.40;;;;;;;15.42;76.18;99968.33;232822;214;138498;-61
2023/09/07 05:58:16;;;;;;;29.10;12.50;;;;;;;15.51;76.36;99970.23;232588;214;145951;-58
2023/09/07 06:03:22;;;;;;;22.70;11.80;;;;;;;15.64;76.52;99977.08;232650;215;139668;-59
2023/09/07 06:08:27;;;;;;;21.50;12.20;;;;;;;15.81;76.59;99974.33;232741;215;137510;-59
2023/09/07 06:13:33;;;;;;;19.20;11.90;;;;;;;15.97;76.54;99970.55;232634;214;145481;-60
2023/09/07 06:18:41;;;;;;;31.80;12.50;;;;;;;16.14;76.53;99972.19;232706;214;139839;-59
2023/09/07 06:23:45;;;;;;;33.70;13.40;;;;;;;16.29;76.40;99977.71;232827;214;137086;-59
2023/09/07 06:29:41;;;;;;;23.90;12.60;;;;;;;16.46;76.38;99978.02;231889;222;724444;-58
2023/09/07 06:34:49;;;;;;;27.00;12.60;;;;;;;16.59;76.40;99982.76;232817;217;137122;-59
2023/09/07 06:39:54;;;;;;;22.80;13.30;;;;;;;16.79;76.37;99980.30;232930;217;143644;-59
2023/09/07 06:44:58;;;;;;;26.50;13.20;;;;;;;17.03;76.38;99979.95;232761;216;139606;-58
2023/09/07 06:50:05;;;;;;;24.60;12.40;;;;;;;17.52;75.94;99984.17;232795;216;137927;-58
2023/09/07 06:55:09;;;;;;;23.60;12.70;;;;;;;17.99;74.88;99988.39;232724;216;143691;-57
2023/09/07 07:00:17;;;;;;;21.60;13.10;;;;;;;18.31;73.80;99991.04;232917;217;141035;-58
2023/09/07 07:05:23;;;;;;;19.90;11.70;;;;;;;18.65;72.72;99993.52;232833;216;137712;-57
2023/09/07 07:10:28;;;;;;;19.00;12.40;;;;;;;18.94;71.75;99997.50;232778;216;143999;-56
2023/09/07 07:15:39;;;;;;;21.30;12.80;;;;;;;19.17;70.89;100003.20;232832;216;139484;-58
2023/09/07 07:20:51;;;;;;;20.60;12.80;;;;;;;19.33;69.98;100005.31;232926;217;137521;-56
2023/09/07 07:25:55;;;;;;;21.80;12.90;;;;;;;19.47;69.19;100005.55;232845;216;147059;-57
2023/09/07 07:31:08;;;;;;;19.30;13.10;;;;;;;19.55;68.63;100000.05;232666;217;140301;-55
2023/09/07 07:36:12;;;;;;;20.70;12.80;;;;;;;19.64;68.14;99998.97;232905;216;138573;-58
2023/09/07 07:41:18;;;;;;;17.80;12.50;;;;;;;19.69;68.18;99998.59;232758;217;145847;-57
2023/09/07 07:46:23;;;;;;;18.30;12.70;;;;;;;19.74;68.11;100001.04;232813;217;138809;-56
2023/09/07 07:51:28;;;;;;;20.70;12.90;;;;;;;19.83;68.12;100000.61;232792;217;138354;-58
2023/09/07 07:56:33;;;;;;;18.90;11.80;;;;;;;19.93;67.94;99997.59;232842;217;145545;-57
2023/09/07 08:01:40;;;;;;;16.40;11.70;;;;;;;20.03;67.74;99996.70;232768;217;138812;-58
2023/09/07 08:06:46;;;;;;;17.50;11.50;;;;;;;20.05;67.35;99997.61;232770;214;137170;-60
2023/09/07 08:12:02;;;;;;;17.50;11.50;;;;;;;20.06;66.92;99997.36;232864;217;145936;-59
2023/09/07 08:17:09;;;;;;;17.30;11.90;;;;;;;20.12;67.36;99995.77;232711;217;139284;-59
2023/09/07 08:22:13;;;;;;;15.40;10.20;;;;;;;20.17;67.04;99993.88;232796;217;137265;-59
2023/09/07 08:27:21;;;;;;;19.00;10.70;;;;;;;20.25;66.77;99987.98;232734;217;146318;-58
2023/09/07 08:32:29;;;;;;;15.80;10.60;;;;;;;20.34;66.75;99990.58;232816;217;140538;-58
2023/09/07 08:37:34;;;;;;;19.80;9.90;;;;;;;20.41;66.33;99990.64;232712;217;137856;-59
2023/09/07 08:42:40;;;;;;;14.90;9.50;;;;;;;20.51;66.07;99990.69;232864;217;145700;-60
2023/09/07 08:47:47;;;;;;;13.70;9.70;;;;;;;20.68;66.10;99990.70;232947;217;140007;-59
2023/09/07 08:52:53;;;;;;;16.30;8.90;;;;;;;20.85;64.92;99992.77;232809;217;137946;-59
2023/09/07 08:57:56;;;;;;;19.20;7.70;;;;;;;21.00;63.89;99995.05;232904;217;145831;-59
2023/09/07 09:03:00;;;;;;;17.70;8.00;;;;;;;21.14;63.33;99993.09;232786;217;140060;-60
2023/09/07 09:08:24;;;;;;;14.10;7.60;;;;;;;21.28;63.00;99993.52;232851;217;138191;-61
2023/09/07 09:13:33;;;;;;;100.10;66.80;;;;;;;21.40;62.02;99995.71;232830;217;147459;-61
2023/09/07 09:18:52;;;;;;;26.30;12.90;;;;;;;21.54;61.72;99989.59;232998;217;140339;-61
2023/09/07 09:23:57;;;;;;;18.30;8.50;;;;;;;21.72;61.88;99988.30;232980;215;137833;-62
2023/09/07 09:29:02;;;;;;;14.70;8.30;;;;;;;21.84;61.11;99990.23;232790;215;148596;-59
2023/09/07 09:34:08;;;;;;;12.60;7.10;;;;;;;21.87;61.35;99983.47;232762;215;142117;-59
2023/09/07 09:39:25;;;;;;;10.90;6.60;;;;;;;21.88;60.72;99983.46;232845;215;138161;-58
2023/09/07 09:44:30;;;;;;;9.40;6.20;;;;;;;21.94;60.37;99985.83;232793;215;145683;-59
2023/09/07 09:49:38;;;;;;;10.30;6.00;;;;;;;22.07;60.23;99981.59;232885;215;139260;-60
2023/09/07 09:54:42;;;;;;;10.30;6.20;;;;;;;22.19;59.86;99983.48;232963;215;137661;-59
2023/09/07 09:59:51;;;;;;;9.30;6.50;;;;;;;22.36;59.80;99976.40;232796;215;146100;-58
2023/09/07 10:04:56;;;;;;;9.10;6.70;;;;;;;22.65;59.44;99975.63;232789;215;140011;-59
2023/09/07 10:10:00;;;;;;;12.20;7.10;;;;;;;22.83;59.40;99969.63;232737;215;137935;-61
2023/09/07 10:15:07;;;;;;;10.10;6.50;;;;;;;22.93;58.77;99974.30;232782;215;146226;-59
2023/09/07 10:20:11;;;;;;;9.10;5.80;;;;;;;23.17;57.48;99969.77;232740;215;138890;-59
2023/09/07 10:25:21;;;;;;;10.10;6.70;;;;;;;23.35;56.07;99969.93;232799;215;138713;-60
2023/09/07 10:30:25;;;;;;;7.90;4.90;;;;;;;23.44;55.69;99961.33;232923;215;146610;-60
2023/09/07 10:35:35;;;;;;;8.40;5.00;;;;;;;23.58;55.19;99962.38;232687;215;140021;-60
2023/09/07 10:40:41;;;;;;;6.90;5.20;;;;;;;23.81;54.14;99956.98;232787;215;140553;-61
2023/09/07 10:45:46;;;;;;;7.60;4.60;;;;;;;23.98;53.21;99960.02;232753;215;145723;-61
2023/09/07 10:50:55;;;;;;;7.90;4.50;;;;;;;24.06;52.41;99946.98;232845;215;140608;-61
2023/09/07 10:56:05;;;;;;;11.10;5.00;;;;;;;24.19;52.02;99946.66;232688;215;137490;-60
2023/09/07 11:01:10;;;;;;;9.50;4.50;;;;;;;24.38;51.22;99942.23;232809;215;145398;-59
2023/09/07 11:06:22;;;;;;;7.40;4.20;;;;;;;24.58;51.53;99942.98;232840;215;140567;-59
2023/09/07 11:11:36;;;;;;;6.00;4.30;;;;;;;24.78;50.40;99939.70;232786;215;138248;-61
2023/09/07 11:16:43;;;;;;;5.80;4.00;;;;;;;24.91;50.46;99933.86;232876;215;147520;-58
2023/09/07 11:21:47;;;;;;;5.60;4.80;;;;;;;25.09;50.52;99935.29;232686;215;138880;-59
2023/09/07 11:26:51;;;;;;;6.20;4.40;;;;;;;25.24;49.91;99942.41;232771;215;137060;-58
2023/09/07 11:32:10;;;;;;;7.00;4.40;;;;;;;25.44;49.93;99937.52;232807;215;145539;-58
2023/09/07 11:37:16;;;;;;;9.20;5.10;;;;;;;25.69;49.76;99937.14;232741;215;138880;-60
2023/09/07 11:42:20;;;;;;;7.30;4.60;;;;;;;25.83;48.78;99930.99;232921;215;138587;-59
2023/09/07 11:47:26;;;;;;;5.90;4.80;;;;;;;25.93;48.76;99927.91;232737;215;145467;-60
2023/09/07 11:52:30;;;;;;;7.80;4.80;;;;;;;25.99;48.04;99928.84;232835;215;140290;-59
2023/09/07 11:57:36;;;;;;;7.70;4.70;;;;;;;25.98;47.88;99927.50;232767;215;138217;-58
2023/09/07 12:02:41;;;;;;;6.20;4.40;;;;;;;26.17;47.54;99923.52;232851;215;146567;-61
2023/09/07 12:07:47;;;;;;;9.10;5.00;;;;;;;26.32;47.41;99924.02;232751;215;139590;-59
2023/09/07 12:12:53;;;;;;;5.40;4.20;;;;;;;26.51;47.56;99922.95;232872;215;137478;-59
2023/09/07 12:17:58;;;;;;;6.00;4.60;;;;;;;26.70;46.86;99910.59;232736;215;147225;-59
2023/09/07 12:23:04;;;;;;;6.60;4.40;;;;;;;26.90;46.35;99909.02;232797;215;138942;-59
2023/09/07 12:28:10;;;;;;;40.30;31.70;;;;;;;27.06;45.87;99904.15;232739;215;138151;-58
2023/09/07 12:33:14;;;;;;;13.10;8.30;;;;;;;27.14;45.42;99899.48;232764;215;145644;-57
2023/09/07 12:38:21;;;;;;;;;;;;;;;27.19;45.31;99899.38;232746;215;138651;-59
2023/09/07 12:43:25;;;;;;;7.70;4.70;;;;;;;27.32;44.75;99893.89;232819;215;131080;-60
2023/09/07 12:48:31;;;;;;;6.80;4.30;;;;;;;27.40;44.10;99893.12;232880;215;146411;-60
2023/09/07 12:53:36;;;;;;;6.00;4.40;;;;;;;27.48;44.12;99888.67;232823;215;139562;-59
2023/09/07 12:58:46;;;;;;;9.50;4.80;;;;;;;27.64;43.81;99886.20;232706;215;136614;-61
2023/09/07 13:03:51;;;;;;;128.20;104.00;;;;;;;27.79;43.78;99877.13;232804;215;145678;-61
2023/09/07 13:08:57;;;;;;;10.20;7.80;;;;;;;27.89;43.32;99871.92;232682;215;138688;-60
2023/09/07 13:14:03;;;;;;;7.50;4.90;;;;;;;28.04;43.23;99870.84;232760;215;136916;-61
2023/09/07 13:19:20;;;;;;;7.80;4.40;;;;;;;28.22;42.68;99866.21;232887;215;145767;-60
2023/09/07 13:24:25;;;;;;;7.70;4.40;;;;;;;28.23;42.16;99862.27;232810;215;140649;-58
2023/09/07 13:29:35;;;;;;;6.50;4.10;;;;;;;28.39;42.09;99857.56;232871;215;137395;-59
2023/09/07 13:34:40;;;;;;;10.30;4.00;;;;;;;28.54;41.57;99859.93;232724;215;145894;-59
2023/09/07 13:39:45;;;;;;;6.60;4.50;;;;;;;28.50;41.30;99859.26;232747;215;139543;-59
2023/09/07 13:44:50;;;;;;;4.70;3.80;;;;;;;28.57;41.07;99857.69;232800;215;138230;-61
2023/09/07 13:49:56;;;;;;;7.00;4.10;;;;;;;28.60;40.86;99860.42;232790;215;147183;-63
2023/09/07 13:54:59;;;;;;;12.40;6.80;;;;;;;28.46;40.62;99854.15;232823;215;138898;-63
2023/09/07 14:00:08;;;;;;;12.30;4.70;;;;;;;28.21;40.77;99852.45;232840;215;137957;-60
2023/09/07 14:05:12;;;;;;;8.50;4.00;;;;;;;27.98;41.16;99851.26;232841;215;145461;-62
2023/09/07 14:10:16;;;;;;;;;;;;;;;27.67;41.82;99851.34;232843;215;139589;-62
2023/09/07 14:15:21;;;;;;;6.50;4.70;;;;;;;27.24;42.21;99848.13;232939;215;131196;-60
2023/09/07 14:20:25;;;;;;;5.30;4.20;;;;;;;26.85;42.95;99843.25;232771;215;146333;-58
2023/09/07 14:25:30;;;;;;;6.80;4.50;;;;;;;26.48;43.56;99843.59;232918;215;138875;-59
2023/09/07 14:30:34;;;;;;;6.00;4.00;;;;;;;26.13;44.37;99840.03;232945;215;138264;-58
2023/09/07 14:35:38;;;;;;;5.20;4.30;;;;;;;25.90;44.83;99841.25;232848;215;145605;-59
2023/09/07 14:40:43;;;;;;;10.70;4.30;;;;;;;25.70;45.44;99839.05;232721;215;138976;-61
2023/09/07 14:45:53;;;;;;;6.90;4.60;;;;;;;25.49;45.88;99836.95;232800;215;137675;-61
2023/09/07 14:51:01;;;;;;;8.00;4.50;;;;;;;25.33;46.43;99833.98;232808;215;147205;-60
2023/09/07 14:56:07;;;;;;;28.90;22.70;;;;;;;25.18;46.47;99833.56;232802;215;138600;-59
2023/09/07 15:01:12;;;;;;;8.00;5.60;;;;;;;25.03;46.57;99833.95;232977;215;138284;-62
2023/09/07 15:06:18;;;;;;;9.50;4.50;;;;;;;24.88;46.71;99828.67;232884;215;148107;-59
2023/09/07 15:11:23;;;;;;;9.60;4.80;;;;;;;24.81;47.27;99828.32;232788;215;138981;-64
2023/09/07 15:16:30;;;;;;;9.30;4.70;;;;;;;24.71;47.74;99822.21;232698;215;136929;-60
2023/09/07 15:21:37;;;;;;;16.30;14.50;;;;;;;24.56;48.47;99817.95;232739;215;149383;-62
2023/09/07 15:26:43;;;;;;;9.60;5.70;;;;;;;24.52;48.77;99820.60;232722;215;140314;-64
2023/09/07 15:31:49;;;;;;;10.90;5.00;;;;;;;24.49;49.25;99817.63;232850;215;137500;-60
2023/09/07 15:36:53;;;;;;;8.50;4.40;;;;;;;24.43;49.28;99820.12;232962;215;147352;-62
2023/09/07 15:41:58;;;;;;;8.10;5.00;;;;;;;24.34;49.46;99819.62;232841;215;140880;-66
2023/09/07 15:47:04;;;;;;;8.50;4.60;;;;;;;24.29;49.53;99815.27;232847;215;137120;-62
2023/09/07 15:52:09;;;;;;;149.90;111.40;;;;;;;24.21;49.72;99812.47;232868;215;147631;-64
2023/09/07 15:57:14;;;;;;;22.50;16.60;;;;;;;24.14;50.11;99807.23;232777;215;141330;-65
2023/09/07 16:02:20;;;;;;;9.20;6.90;;;;;;;24.13;50.77;99811.33;232741;215;137491;-61
2023/09/07 16:07:26;;;;;;;7.50;4.90;;;;;;;24.07;50.83;99811.27;232944;215;147386;-66
2023/09/07 16:12:30;;;;;;;;;;;;;;;23.98;50.82;99808.92;232741;215;138996;-66
2023/09/07 16:17:35;;;;;;;11.60;5.40;;;;;;;23.94;51.23;99810.13;233022;215;132916;-63
2023/09/07 16:22:41;;;;;;;8.20;4.90;;;;;;;23.87;51.60;99812.46;232787;215;148924;-60
2023/09/07 16:27:58;;;;;;;11.50;4.70;;;;;;;23.77;51.88;99816.19;232737;215;140718;-62
2023/09/07 16:33:02;;;;;;;80.80;66.60;;;;;;;23.70;52.44;99818.76;232718;215;139837;-65
2023/09/07 16:38:06;;;;;;;14.70;9.00;;;;;;;23.67;52.93;99822.67;232826;215;149764;-59
2023/09/07 16:43:10;;;;;;;14.40;5.60;;;;;;;23.57;53.28;99817.70;232877;215;138869;-61
2023/09/07 16:48:15;;;;;;;15.50;5.00;;;;;;;23.50;54.13;99822.13;232633;215;140159;-57
2023/09/07 16:53:22;;;;;;;21.20;5.40;;;;;;;23.45;54.36;99819.03;232747;215;147632;-57
2023/09/07 16:58:27;;;;;;;20.00;6.00;;;;;;;23.38;54.82;99822.27;232721;215;138854;-58
2023/09/07 17:03:51;;;;;;;32.60;6.20;;;;;;;23.26;55.42;99823.52;232752;215;137869;-60
2023/09/07 17:08:56;;;;;;;;;;;;;;;23.16;55.92;99824.16;232636;215;147691;-61
2023/09/07 17:14:02;;;;;;;385.90;333.00;;;;;;;23.03;55.97;99821.87;232932;215;140632;-64
2023/09/07 17:19:07;;;;;;;40.40;33.40;;;;;;;22.89;56.20;99822.88;232858;215;138014;-62
2023/09/07 17:24:12;;;;;;;13.50;8.60;;;;;;;22.77;56.36;99832.83;232764;215;147590;-62
2023/09/07 17:29:19;;;;;;;14.40;8.40;;;;;;;22.64;56.76;99832.11;232848;215;138787;-62
2023/09/07 17:34:25;;;;;;;10.60;6.80;;;;;;;22.52;57.59;99835.08;232812;215;138162;-61
2023/09/07 17:39:34;;;;;;;14.00;7.00;;;;;;;22.43;58.12;99839.76;232770;215;149318;-63
2023/09/07 17:44:38;;;;;;;9.50;6.60;;;;;;;22.33;58.29;99845.84;232761;215;138862;-61
2023/09/07 17:49:43;;;;;;;10.70;6.70;;;;;;;22.19;59.06;99851.75;232783;215;137980;-61
2023/09/07 17:54:50;;;;;;;19.20;12.60;;;;;;;22.04;59.49;99856.38;232720;215;149083;-60
2023/09/07 17:59:55;;;;;;;9.10;6.30;;;;;;;21.95;60.41;99854.50;232836;215;138986;-62
2023/09/07 18:04:59;;;;;;;66.60;51.40;;;;;;;21.89;60.64;99849.36;232773;215;137632;-62
2023/09/07 18:10:07;;;;;;;17.40;9.20;;;;;;;21.77;60.80;99850.20;232818;215;147484;-64
2023/09/07 18:15:13;;;;;;;14.20;7.40;;;;;;;21.61;61.21;99853.14;232745;215;139019;-65
2023/09/07 18:20:18;;;;;;;13.10;6.30;;;;;;;21.43;61.76;99854.80;232856;215;138353;-61
2023/09/07 18:25:25;;;;;;;14.10;7.40;;;;;;;21.28;62.24;99859.58;232940;215;148051;-62
2023/09/07 18:30:35;;;;;;;11.80;7.30;;;;;;;21.17;62.71;99863.02;232765;215;141216;-60
2023/09/07 18:35:40;;;;;;;31.60;20.30;;;;;;;21.03;62.95;99869.71;232763;215;137578;-64
2023/09/07 18:40:54;;;;;;;15.70;8.20;;;;;;;20.94;63.36;99869.11;232786;215;148186;-65
2023/09/07 18:46:08;;;;;;;15.00;7.00;;;;;;;20.85;63.41;99873.39;232706;215;140823;-65
2023/09/07 18:51:13;;;;;;;10.30;7.50;;;;;;;20.76;63.84;99871.62;232741;215;139073;-64
2023/09/07 18:56:20;;;;;;;13.30;7.80;;;;;;;20.75;64.05;99874.81;232755;215;149225;-59
2023/09/07 19:01:25;;;;;;;12.40;8.80;;;;;;;20.74;64.21;99879.39;232882;215;141968;-63
2023/09/07 19:06:32;;;;;;;14.70;9.50;;;;;;;20.68;63.96;99878.45;232781;215;139555;-63
2023/09/07 19:11:44;;;;;;;17.20;9.20;;;;;;;20.63;64.08;99877.23;232757;215;147375;-66
2023/09/07 19:16:50;;;;;;;14.60;9.20;;;;;;;20.53;64.33;99878.94;232715;215;139790;-64
2023/09/07 19:21:54;;;;;;;15.30;9.30;;;;;;;20.44;64.59;99875.06;232812;215;139020;-64
2023/09/07 19:27:02;;;;;;;16.60;9.90;;;;;;;20.35;64.78;99879.50;232883;215;149819;-64
2023/09/07 19:32:06;;;;;;;16.00;10.10;;;;;;;20.25;65.23;99876.41;232718;215;141053;-63
2023/09/07 19:37:12;;;;;;;16.50;9.90;;;;;;;20.14;65.74;99878.29;232824;215;137199;-62
2023/09/07 19:42:16;;;;;;;17.30;10.00;;;;;;;20.05;65.94;99878.33;232793;215;147939;-63
2023/09/07 19:47:23;;;;;;;17.50;9.40;;;;;;;19.98;65.83;99874.96;232775;215;138633;-63
2023/09/07 19:52:27;;;;;;;13.90;9.00;;;;;;;19.94;65.79;99876.23;232787;215;137639;-62
2023/09/07 19:57:31;;;;;;;16.90;9.20;;;;;;;19.94;65.96;99872.48;232690;215;148555;-62
2023/09/07 20:02:38;;;;;;;17.10;9.60;;;;;;;19.96;65.86;99869.08;232751;215;141322;-64
2023/09/07 20:07:43;;;;;;;14.60;8.90;;;;;;;19.94;65.92;99866.73;232925;215;137303;-62
2023/09/07 20:12:48;;;;;;;14.90;9.30;;;;;;;19.89;66.11;99866.65;232753;215;149335;-67
2023/09/07 20:18:02;;;;;;;15.30;8.90;;;;;;;19.80;66.24;99866.29;232754;215;138843;-61
2023/09/07 20:23:07;;;;;;;15.60;8.80;;;;;;;19.71;66.34;99866.89;232669;215;137934;-63
2023/09/07 20:28:11;;;;;;;18.30;9.40;;;;;;;19.64;66.64;99865.70;232775;215;147530;-63
2023/09/07 20:33:17;;;;;;;19.90;9.50;;;;;;;19.55;67.11;99854.59;232705;215;139620;-62
2023/09/07 20:38:24;;;;;;;13.70;9.20;;;;;;;19.47;67.28;99852.61;232779;215;138107;-62
2023/09/07 20:43:27;;;;;;;16.40;9.00;;;;;;;19.37;67.59;99849.13;232930;215;147543;-63
2023/09/07 20:48:31;;;;;;;12.90;8.70;;;;;;;19.30;67.85;99840.13;232755;215;138879;-65
2023/09/07 20:53:37;;;;;;;18.60;11.00;;;;;;;19.26;68.03;99842.83;232735;215;137794;-64
2023/09/07 20:58:43;;;;;;;14.60;10.30;;;;;;;19.22;68.29;99840.30;232768;215;147415;-63
2023/09/07 21:03:47;;;;;;;14.60;9.60;;;;;;;19.17;68.53;99841.28;232729;215;138151;-64
2023/09/07 21:08:54;;;;;;;18.40;11.20;;;;;;;19.11;68.69;99841.77;232650;215;137619;-63
2023/09/07 21:13:59;;;;;;;15.10;10.90;;;;;;;19.03;68.94;99840.13;232877;215;147454;-64
2023/09/07 21:19:05;;;;;;;18.70;9.80;;;;;;;18.99;69.32;99840.46;232656;215;138996;-58
2023/09/07 21:24:09;;;;;;;18.60;10.10;;;;;;;18.93;69.58;99843.30;232687;215;137998;-62
2023/09/07 21:29:13;;;;;;;20.80;10.10;;;;;;;18.89;69.97;99843.66;232681;215;147469;-63
2023/09/07 21:34:17;;;;;;;15.40;10.00;;;;;;;18.87;70.13;99840.95;232747;215;138702;-64
2023/09/07 21:39:24;;;;;;;17.60;10.90;;;;;;;18.86;70.31;99841.18;232741;215;139421;-63
2023/09/07 21:44:27;;;;;;;12.80;8.30;;;;;;;18.84;70.39;99842.23;232772;215;148324;-64
2023/09/07 21:49:33;;;;;;;17.30;10.70;;;;;;;18.81;70.51;99839.33;232799;215;138626;-63
2023/09/07 21:54:37;;;;;;;15.70;10.50;;;;;;;18.76;70.61;99840.79;232795;214;138340;-64
2023/09/07 21:59:42;;;;;;;17.80;11.20;;;;;;;18.70;70.97;99840.54;232671;215;147225;-64
2023/09/07 22:04:50;;;;;;;16.90;10.50;;;;;;;18.63;71.17;99845.40;232725;215;139688;-64
2023/09/07 22:09:57;;;;;;;15.20;9.60;;;;;;;18.59;71.37;99841.42;232707;215;138952;-61
2023/09/07 22:15:01;;;;;;;14.80;10.10;;;;;;;18.59;71.43;99838.19;232753;215;148813;-65
2023/09/07 22:20:10;;;;;;;17.20;11.30;;;;;;;18.59;71.55;99837.81;232888;215;153312;-65
2023/09/07 22:25:13;;;;;;;15.60;10.80;;;;;;;18.57;71.51;99837.98;232901;215;137573;-65
2023/09/07 22:30:18;;;;;;;16.20;10.80;;;;;;;18.50;71.77;99843.23;232732;215;147973;-65
2023/09/07 22:35:23;;;;;;;17.70;10.40;;;;;;;18.43;71.97;99847.40;232705;215;138822;-65
2023/09/07 22:40:28;;;;;;;16.20;10.70;;;;;;;18.36;72.17;99853.52;232811;215;138385;-64
2023/09/07 22:45:36;;;;;;;19.10;10.40;;;;;;;18.28;72.19;99850.66;232777;215;147685;-65
2023/09/07 22:50:54;;;;;;;17.20;10.10;;;;;;;18.20;72.34;99850.33;232686;215;140150;-64
2023/09/07 22:55:59;;;;;;;16.30;10.60;;;;;;;18.18;72.45;99850.70;232844;215;137941;-65
2023/09/07 23:01:04;;;;;;;18.40;10.10;;;;;;;18.15;72.25;99853.30;232778;215;148211;-57
2023/09/07 23:06:07;;;;;;;18.30;10.60;;;;;;;18.08;72.25;99854.06;232747;215;139947;-63
2023/09/07 23:11:12;;;;;;;15.40;10.40;;;;;;;18.01;72.18;99855.28;233116;215;136954;-63
2023/09/07 23:16:17;;;;;;;15.40;10.20;;;;;;;17.97;72.53;99853.32;233391;215;147342;-60
2023/09/07 23:21:23;;;;;;;15.60;10.30;;;;;;;17.92;72.48;99863.58;233389;215;139119;-65
2023/09/07 23:26:29;;;;;;;14.90;9.70;;;;;;;17.84;72.53;99864.05;232999;215;138136;-62
2023/09/07 23:31:33;;;;;;;16.10;9.50;;;;;;;17.77;72.62;99865.63;232878;215;147620;-62